createdAt,value
2022-11-23T00:01:15.770Z,14.27
2022-11-23T00:03:44.418Z,14.12
2022-11-23T00:06:13.018Z,14.14
2022-11-23T00:08:41.585Z,13.89
2022-11-23T00:11:11.538Z,13.95
2022-11-23T00:13:40.881Z,14.22
2022-11-23T00:16:10.255Z,14.36
2022-11-23T00:18:38.599Z,14.44
2022-11-23T00:21:08.237Z,14.65
2022-11-23T00:23:36.710Z,14.16
2022-11-23T00:26:05.358Z,14.67
2022-11-23T00:28:37.493Z,14.46
2022-11-23T00:31:06.226Z,14.19
2022-11-23T00:33:34.607Z,14.38
2022-11-23T00:36:03.825Z,14.03
2022-11-23T00:38:32.130Z,14.06
2022-11-23T00:41:01.842Z,14.17
2022-11-23T00:43:30.880Z,14.09
2022-11-23T00:46:10.487Z,14.26
2022-11-23T00:48:38.814Z,14.07
2022-11-23T00:51:08.858Z,13.75
2022-11-23T00:53:37.411Z,13.25
2022-11-23T00:56:06.202Z,13.35
2022-11-23T00:58:34.887Z,13.48
2022-11-23T01:01:05.676Z,13.56
2022-11-23T01:03:35.773Z,14.11
2022-11-23T01:06:08.914Z,14.45
2022-11-23T01:08:37.364Z,14.82
2022-11-23T01:11:07.612Z,15.05
2022-11-23T01:13:36.148Z,15.50
2022-11-23T01:16:04.644Z,15.65
2022-11-23T01:18:32.859Z,15.75
2022-11-23T01:21:03.456Z,15.86
2022-11-23T01:23:31.490Z,16.29
2022-11-23T01:26:01.111Z,16.05
2022-11-23T01:28:29.399Z,16.01
2022-11-23T01:31:04.840Z,16.21
2022-11-23T01:33:33.131Z,16.08
2022-11-23T01:36:02.748Z,16.13
2022-11-23T01:38:31.024Z,16.10
2022-11-23T01:40:59.288Z,16.21
2022-11-23T01:43:27.567Z,16.17
2022-11-23T01:45:58.178Z,16.17
2022-11-23T01:48:27.530Z,16.21
2022-11-23T01:50:57.519Z,15.95
2022-11-23T01:53:27.995Z,16.26
2022-11-23T01:55:58.758Z,16.26
2022-11-23T01:58:27.393Z,16.07
2022-11-23T02:00:55.729Z,15.75
2022-11-23T02:03:24.332Z,16.05
2022-11-23T02:06:00.017Z,16.13
2022-11-23T02:08:30.228Z,16.24
2022-11-23T02:10:58.978Z,16.11
2022-11-23T02:13:28.596Z,16.07
2022-11-23T02:15:57.486Z,16.07
2022-11-23T02:18:28.103Z,15.92
2022-11-23T02:20:56.197Z,16.21
2022-11-23T02:23:35.090Z,15.84
2022-11-23T02:26:07.819Z,15.81
2022-11-23T02:28:39.081Z,15.59
2022-11-23T02:31:07.305Z,15.68
2022-11-23T02:33:35.593Z,15.68
2022-11-23T02:36:03.950Z,15.63
2022-11-23T02:38:33.996Z,15.75
2022-11-23T02:41:02.230Z,15.64
2022-11-23T02:43:31.831Z,15.72
2022-11-23T02:46:01.235Z,15.65
2022-11-23T02:48:29.473Z,15.50
2022-11-23T02:50:57.699Z,15.47
2022-11-23T02:53:25.988Z,15.40
2022-11-23T02:55:54.235Z,15.35
2022-11-23T02:58:22.493Z,15.31
2022-11-23T03:00:52.096Z,15.36
2022-11-23T03:03:20.470Z,15.23
2022-11-23T03:05:48.683Z,15.17
2022-11-23T03:08:16.948Z,15.12
2022-11-23T03:10:45.196Z,15.10
2022-11-23T03:13:13.471Z,15.05
2022-11-23T03:15:41.735Z,15.02
2022-11-23T03:18:11.337Z,15.16
2022-11-23T03:20:39.781Z,15.03
2022-11-23T03:23:08.110Z,15.04
2022-11-23T03:25:36.449Z,14.96
2022-11-23T03:28:05.035Z,14.91
2022-11-23T03:30:33.329Z,14.87
2022-11-23T03:33:01.630Z,14.86
2022-11-23T03:35:31.199Z,14.98
2022-11-23T03:37:59.478Z,14.87
2022-11-23T03:40:27.706Z,14.81
2022-11-23T03:42:56.018Z,14.87
2022-11-23T03:45:24.311Z,14.78
2022-11-23T03:47:52.549Z,14.83
2022-11-23T03:50:21.083Z,14.91
2022-11-23T03:52:51.189Z,14.94
2022-11-23T03:55:19.436Z,14.88
2022-11-23T03:57:49.023Z,14.90
2022-11-23T04:00:17.967Z,14.86
2022-11-23T04:02:46.219Z,14.75
2022-11-23T04:05:14.639Z,14.66
2022-11-23T04:07:42.935Z,14.46
2022-11-23T04:10:12.607Z,14.63
2022-11-23T04:12:40.924Z,14.52
2022-11-23T04:15:10.091Z,14.52
2022-11-23T04:17:38.877Z,14.47
2022-11-23T04:20:08.747Z,14.31
2022-11-23T04:22:37.321Z,14.09
2022-11-23T04:25:06.321Z,14.10
2022-11-23T04:27:35.881Z,14.20
2022-11-23T04:30:05.277Z,14.11
2022-11-23T04:32:33.534Z,14.01
2022-11-23T04:35:01.759Z,14.09
2022-11-23T04:37:30.071Z,14.13
2022-11-23T04:39:58.316Z,13.88
2022-11-23T04:42:26.706Z,14.20
2022-11-23T04:44:57.438Z,14.42
2022-11-23T04:47:25.807Z,14.38
2022-11-23T04:49:54.092Z,14.47
2022-11-23T04:52:22.323Z,14.42
2022-11-23T04:54:50.682Z,14.47
2022-11-23T04:57:19.206Z,14.56
2022-11-23T04:59:47.508Z,14.61
2022-11-23T05:02:17.179Z,14.76
2022-11-23T05:04:45.444Z,14.72
2022-11-23T05:07:13.790Z,14.71
2022-11-23T05:09:42.110Z,14.74
2022-11-23T05:12:10.505Z,14.78
2022-11-23T05:14:38.777Z,14.82
2022-11-23T05:17:07.069Z,14.82
2022-11-23T05:19:36.756Z,14.88
2022-11-23T05:22:05.014Z,14.86
2022-11-23T05:24:33.367Z,14.93
2022-11-23T05:27:01.604Z,14.74
2022-11-23T05:29:30.331Z,14.64
2022-11-23T05:31:58.856Z,14.56
2022-11-23T05:34:27.195Z,14.79
2022-11-23T05:36:56.814Z,14.96
2022-11-23T05:39:25.102Z,14.89
2022-11-23T05:41:53.396Z,14.80
2022-11-23T05:44:21.735Z,14.79
2022-11-23T05:46:49.943Z,14.65
2022-11-23T05:49:18.215Z,14.54
2022-11-23T05:51:46.548Z,14.45
2022-11-23T05:54:16.247Z,14.17
2022-11-23T05:56:44.527Z,14.13
2022-11-23T05:59:13.230Z,14.19
2022-11-23T06:01:41.560Z,14.08
2022-11-23T06:04:09.866Z,14.10
2022-11-23T06:06:38.225Z,14.00
2022-11-23T06:09:06.445Z,13.96
2022-11-23T06:11:36.075Z,14.24
2022-11-23T06:14:04.573Z,14.28
2022-11-23T06:16:33.173Z,14.14
2022-11-23T06:19:01.446Z,14.03
2022-11-23T06:21:29.719Z,14.02
2022-11-23T06:23:57.986Z,14.03
2022-11-23T06:26:26.964Z,13.97
2022-11-23T06:28:56.651Z,14.05
2022-11-23T06:31:25.040Z,13.84
2022-11-23T06:33:53.492Z,13.76
2022-11-23T06:36:22.064Z,13.50
2022-11-23T06:38:50.296Z,13.61
2022-11-23T06:41:18.793Z,13.60
2022-11-23T06:43:47.912Z,13.86
2022-11-23T06:46:17.963Z,14.31
2022-11-23T06:48:46.674Z,14.38
2022-11-23T06:51:15.721Z,14.55
2022-11-23T06:53:44.543Z,14.70
2022-11-23T06:56:12.816Z,14.77
2022-11-23T06:58:41.168Z,14.80
2022-11-23T07:01:10.571Z,14.98
2022-11-23T07:03:40.262Z,15.10
2022-11-23T07:06:09.348Z,15.18
2022-11-23T07:08:40.009Z,15.22
2022-11-23T07:11:08.066Z,15.51
2022-11-23T07:13:36.310Z,15.29
2022-11-23T07:16:04.931Z,15.52
2022-11-23T07:18:33.253Z,15.66
2022-11-23T07:21:02.993Z,15.82
2022-11-23T07:23:31.253Z,15.57
2022-11-23T07:25:59.594Z,15.50
2022-11-23T07:28:27.847Z,15.53
2022-11-23T07:30:56.131Z,15.74
2022-11-23T07:33:24.422Z,15.71
2022-11-23T07:35:52.765Z,15.84
2022-11-23T07:38:22.405Z,16.08
2022-11-23T07:40:51.579Z,16.06
2022-11-23T07:43:19.823Z,16.10
2022-11-23T07:45:48.160Z,16.12
2022-11-23T07:48:16.560Z,16.29
2022-11-23T07:50:44.857Z,16.26
2022-11-23T07:53:13.187Z,16.38
2022-11-23T07:55:42.807Z,16.67
2022-11-23T07:58:11.828Z,16.81
2022-11-23T08:00:40.507Z,16.78
2022-11-23T08:03:27.267Z,17.01
2022-11-23T08:05:56.449Z,17.05
2022-11-23T08:08:24.908Z,17.14
2022-11-23T08:10:54.785Z,17.28
2022-11-23T08:13:23.618Z,17.26
2022-11-23T08:15:55.266Z,17.17
2022-11-23T08:18:24.587Z,16.98
2022-11-23T08:20:52.878Z,17.30
2022-11-23T08:23:21.512Z,17.32
2022-11-23T08:25:49.764Z,17.29
2022-11-23T08:28:19.635Z,17.41
2022-11-23T08:30:48.664Z,17.07
2022-11-23T08:33:17.272Z,17.34
2022-11-23T08:35:45.608Z,17.38
2022-11-23T08:38:13.971Z,17.15
2022-11-23T08:40:42.661Z,17.25
2022-11-23T08:43:10.938Z,17.25
2022-11-23T08:45:40.541Z,17.48
2022-11-23T08:48:08.863Z,17.51
2022-11-23T08:50:37.499Z,17.50
2022-11-23T08:53:05.906Z,17.89
2022-11-23T08:55:34.178Z,18.01
2022-11-23T08:58:02.430Z,18.19
2022-11-23T09:00:30.647Z,18.05
2022-11-23T09:03:00.303Z,18.27
2022-11-23T09:05:29.254Z,17.96
2022-11-23T09:08:00.173Z,18.00
2022-11-23T09:10:28.650Z,18.38
2022-11-23T09:12:56.979Z,18.54
2022-11-23T09:15:25.464Z,18.34
2022-11-23T09:17:53.825Z,18.54
2022-11-23T09:20:23.509Z,18.73
2022-11-23T09:22:53.166Z,18.14
2022-11-23T09:25:21.650Z,18.51
2022-11-23T09:27:50.350Z,18.24
2022-11-23T09:30:18.751Z,18.54
2022-11-23T09:32:47.279Z,18.55
2022-11-23T09:35:15.798Z,18.53
2022-11-23T09:37:45.436Z,18.79
2022-11-23T09:40:16.038Z,18.69
2022-11-23T09:42:47.717Z,19.23
2022-11-23T09:45:22.626Z,19.09
2022-11-23T09:48:02.186Z,19.04
2022-11-23T09:50:35.604Z,19.24
2022-11-23T09:53:08.651Z,19.33
2022-11-23T09:55:39.970Z,19.14
2022-11-23T09:58:08.862Z,18.66
2022-11-23T10:00:40.068Z,18.90
2022-11-23T10:03:13.508Z,19.17
2022-11-23T10:05:41.914Z,19.13
2022-11-23T10:08:16.462Z,19.30
2022-11-23T10:10:45.979Z,19.23
2022-11-23T10:13:26.057Z,19.40
2022-11-23T10:16:16.583Z,18.93
2022-11-23T10:18:51.921Z,19.01
2022-11-23T10:21:26.384Z,19.04
2022-11-23T10:23:57.320Z,18.57
2022-11-23T10:26:30.396Z,18.34
2022-11-23T10:29:00.114Z,18.90
2022-11-23T10:31:29.781Z,19.11
2022-11-23T10:34:04.171Z,19.09
2022-11-23T10:36:32.454Z,19.10
2022-11-23T10:39:03.167Z,19.39
2022-11-23T10:41:31.688Z,19.23
2022-11-23T10:44:05.472Z,19.50
2022-11-23T10:46:39.932Z,19.01
2022-11-23T10:49:17.084Z,19.48
2022-11-23T10:51:56.356Z,19.55
2022-11-23T10:54:31.558Z,19.68
2022-11-23T10:57:01.756Z,19.40
2022-11-23T10:59:36.614Z,19.48
2022-11-23T11:02:18.515Z,19.82
2022-11-23T11:04:47.911Z,19.77
2022-11-23T11:07:23.824Z,19.63
2022-11-23T11:09:58.078Z,19.59
2022-11-23T11:12:26.961Z,19.68
2022-11-23T11:15:10.945Z,19.28
2022-11-23T11:17:42.013Z,19.91
2022-11-23T11:20:32.275Z,19.80
2022-11-23T11:23:02.491Z,19.21
2022-11-23T11:25:35.166Z,18.91
2022-11-23T11:28:04.356Z,19.14
2022-11-23T11:30:41.499Z,18.74
2022-11-23T11:33:12.985Z,19.38
2022-11-23T11:35:44.885Z,18.61
2022-11-23T11:38:13.897Z,18.65
2022-11-23T11:40:47.499Z,19.01
2022-11-23T11:43:19.529Z,18.33
2022-11-23T11:46:13.600Z,19.33
2022-11-23T11:48:40.339Z,19.48
2022-11-23T11:51:12.012Z,19.31
2022-11-23T11:53:46.850Z,19.30
2022-11-23T11:56:22.184Z,19.30
2022-11-23T11:58:57.245Z,19.00
2022-11-23T12:01:31.955Z,18.49
2022-11-23T12:04:05.847Z,19.43
2022-11-23T12:06:37.307Z,19.61
2022-11-23T12:09:10.945Z,19.28
2022-11-23T12:11:40.537Z,18.70
2022-11-23T12:14:12.445Z,18.58
2022-11-23T12:16:47.693Z,19.15
2022-11-23T12:19:21.614Z,19.45
2022-11-23T12:22:12.840Z,19.59
2022-11-23T12:24:57.713Z,19.88
2022-11-23T12:27:33.024Z,19.39
2022-11-23T12:30:18.466Z,18.91
2022-11-23T12:33:05.157Z,19.28
2022-11-23T12:35:46.558Z,19.17
2022-11-23T12:38:25.008Z,19.46
2022-11-23T12:41:10.282Z,19.54
2022-11-23T12:43:50.780Z,19.49
2022-11-23T12:46:21.421Z,20.00
2022-11-23T12:48:53.167Z,19.98
2022-11-23T12:51:30.172Z,20.03
2022-11-23T12:54:31.434Z,19.83
2022-11-23T12:57:09.214Z,19.33
2022-11-23T12:59:44.594Z,18.23
2022-11-23T13:02:38.005Z,19.40
2022-11-23T13:05:36.010Z,19.65
2022-11-23T13:08:25.774Z,19.70
2022-11-23T13:11:00.461Z,19.72
2022-11-23T13:13:36.353Z,19.71
2022-11-23T13:16:36.687Z,20.06
2022-11-23T13:19:40.625Z,19.93
2022-11-23T13:22:12.949Z,19.93
2022-11-23T13:24:55.871Z,19.72
2022-11-23T13:27:44.804Z,19.51
2022-11-23T13:30:45.516Z,19.77
2022-11-23T13:33:35.780Z,19.86
2022-11-23T13:36:11.452Z,19.66
2022-11-23T13:38:43.857Z,19.82
2022-11-23T13:41:58.137Z,19.88
2022-11-23T13:44:28.591Z,19.95
2022-11-23T13:47:05.758Z,19.19
2022-11-23T13:49:41.382Z,19.54
2022-11-23T13:52:31.774Z,19.84
2022-11-23T13:55:20.292Z,19.04
2022-11-23T13:58:33.880Z,19.67
2022-11-23T14:01:02.278Z,18.79
2022-11-23T14:03:53.534Z,19.39
2022-11-23T14:06:26.779Z,19.58
2022-11-23T14:09:02.108Z,19.17
2022-11-23T14:11:30.789Z,18.98
2022-11-23T14:14:02.017Z,19.13
2022-11-23T14:16:47.606Z,18.46
2022-11-23T14:19:22.702Z,18.12
2022-11-23T14:21:59.143Z,17.66
2022-11-23T14:24:48.502Z,17.33
2022-11-23T14:27:47.195Z,17.84
2022-11-23T14:30:23.886Z,17.26
2022-11-23T14:33:03.829Z,17.34
2022-11-23T14:35:34.940Z,17.38
2022-11-23T14:38:17.888Z,17.90
2022-11-23T14:40:54.674Z,17.46
2022-11-23T14:43:23.823Z,17.27
2022-11-23T14:45:52.960Z,16.83
2022-11-23T14:48:22.146Z,17.49
2022-11-23T14:50:56.367Z,17.16
2022-11-23T14:53:27.025Z,17.17
2022-11-23T14:55:56.860Z,17.11
2022-11-23T14:58:26.531Z,17.15
2022-11-23T15:00:59.878Z,16.89
2022-11-23T15:06:18.658Z,16.78
2022-11-23T15:08:50.077Z,17.13
2022-11-23T15:11:21.507Z,17.32
2022-11-23T15:13:51.383Z,17.04
2022-11-23T15:16:20.984Z,16.91
2022-11-23T15:18:50.655Z,16.99
2022-11-23T15:21:26.537Z,16.82
2022-11-23T15:23:57.193Z,17.00
2022-11-23T15:26:47.552Z,16.84
2022-11-23T15:29:34.353Z,16.74
2022-11-23T15:32:35.397Z,16.51
2022-11-23T15:34:55.188Z,16.44
2022-11-23T15:37:24.141Z,16.31
2022-11-23T15:39:53.744Z,16.12
2022-11-23T15:42:25.294Z,16.12
2022-11-23T15:44:54.900Z,15.94
2022-11-23T15:47:26.213Z,16.13
2022-11-23T15:49:58.511Z,15.87
2022-11-23T15:52:28.630Z,15.73
2022-11-23T15:54:58.013Z,15.65
2022-11-23T15:57:28.357Z,15.80
2022-11-23T15:59:58.924Z,15.68
2022-11-23T16:02:29.446Z,15.79
2022-11-23T16:05:14.153Z,15.43
2022-11-23T16:07:53.904Z,15.42
2022-11-23T16:10:24.419Z,15.08
2022-11-23T16:12:55.483Z,14.90
2022-11-23T16:15:42.113Z,14.73
2022-11-23T16:18:23.177Z,14.61
2022-11-23T16:20:53.308Z,15.02
2022-11-23T16:23:23.299Z,15.03
2022-11-23T16:25:56.664Z,14.53
2022-11-23T16:28:29.618Z,14.70
2022-11-23T16:30:58.387Z,14.83
2022-11-23T16:33:27.439Z,14.62
2022-11-23T16:35:55.758Z,14.89
2022-11-23T16:38:24.768Z,14.78
2022-11-23T16:40:53.135Z,14.80
2022-11-23T16:43:21.402Z,14.93
2022-11-23T16:45:52.518Z,14.59
2022-11-23T16:48:44.462Z,15.58
2022-11-23T16:51:14.618Z,15.74
2022-11-23T16:54:12.044Z,15.06
2022-11-23T16:56:32.786Z,14.85
2022-11-23T16:59:01.092Z,14.74
2022-11-23T17:01:32.528Z,14.88
2022-11-23T17:04:01.113Z,14.87
2022-11-23T17:06:29.913Z,14.89
2022-11-23T17:09:03.375Z,14.66
2022-11-23T17:11:36.865Z,14.77
2022-11-23T17:14:05.722Z,14.82
2022-11-23T17:16:35.466Z,14.84
2022-11-23T17:19:03.879Z,14.72
2022-11-23T17:21:32.199Z,14.74
2022-11-23T17:24:01.252Z,14.65
2022-11-23T17:26:35.523Z,14.62
2022-11-23T17:29:05.729Z,14.22
2022-11-23T17:31:35.398Z,13.99
2022-11-23T17:34:03.710Z,14.11
2022-11-23T17:36:32.663Z,14.07
2022-11-23T17:39:01.267Z,13.99
2022-11-23T17:41:29.610Z,13.75
2022-11-23T17:43:59.283Z,13.75
2022-11-23T17:46:28.085Z,13.59
2022-11-23T17:48:59.115Z,13.52
2022-11-23T17:51:28.299Z,13.46
2022-11-23T17:53:56.918Z,13.52
2022-11-23T17:56:26.730Z,13.67
2022-11-23T17:58:55.087Z,13.41
2022-11-23T18:01:23.985Z,13.71
2022-11-23T18:03:52.574Z,13.69
2022-11-23T18:06:24.056Z,13.78
2022-11-23T18:08:53.082Z,13.67
2022-11-23T18:11:22.794Z,13.68
2022-11-23T18:13:51.533Z,13.59
2022-11-23T18:16:20.741Z,13.52
2022-11-23T18:18:50.896Z,13.48
2022-11-23T18:21:20.270Z,13.42
2022-11-23T18:23:49.907Z,13.45
2022-11-23T18:26:20.699Z,13.46
2022-11-23T18:28:49.201Z,13.31
2022-11-23T18:31:17.909Z,13.23
2022-11-23T18:33:46.620Z,12.96
2022-11-23T18:36:15.052Z,13.11
2022-11-23T18:38:44.872Z,13.15
2022-11-23T18:41:16.414Z,13.17
2022-11-23T18:43:44.956Z,13.02
2022-11-23T18:46:19.035Z,13.01
2022-11-23T18:48:48.031Z,12.82
2022-11-23T18:51:16.742Z,12.83
2022-11-23T18:53:47.438Z,12.71
2022-11-23T18:56:17.724Z,12.81
2022-11-23T18:58:46.653Z,12.79
2022-11-23T19:01:17.873Z,12.86
2022-11-23T19:03:47.573Z,12.86
2022-11-23T19:06:16.808Z,12.84
2022-11-23T19:08:46.888Z,12.85
2022-11-23T19:11:19.250Z,12.85
2022-11-23T19:13:49.149Z,12.89
2022-11-23T19:16:20.946Z,12.85
2022-11-23T19:18:50.359Z,12.86
2022-11-23T19:21:20.724Z,13.02
2022-11-23T19:23:50.201Z,13.10
2022-11-23T19:26:20.338Z,13.26
2022-11-23T19:28:48.784Z,13.25
2022-11-23T19:31:19.079Z,13.47
2022-11-23T19:33:48.516Z,13.52
2022-11-23T19:36:18.421Z,13.67
2022-11-23T19:38:48.078Z,13.78
2022-11-23T19:41:16.769Z,13.88
2022-11-23T19:43:46.539Z,14.03
2022-11-23T19:46:15.572Z,13.98
2022-11-23T19:48:43.851Z,13.90
2022-11-23T19:51:13.853Z,13.69
2022-11-23T19:53:42.803Z,13.62
2022-11-23T19:56:13.118Z,13.47
2022-11-23T19:58:42.007Z,13.38
2022-11-23T20:01:13.700Z,13.44
2022-11-23T20:03:43.497Z,13.59
2022-11-23T20:06:14.617Z,13.88
2022-11-23T20:08:43.276Z,13.26
2022-11-23T20:11:13.975Z,13.77
2022-11-23T20:13:42.162Z,13.49
2022-11-23T20:16:13.469Z,12.53
2022-11-23T20:18:42.360Z,11.25
2022-11-23T20:21:12.238Z,11.50
2022-11-23T20:23:40.734Z,11.91
2022-11-23T20:26:09.191Z,11.60
2022-11-23T20:28:37.568Z,11.49
2022-11-23T20:31:06.402Z,11.77
2022-11-23T20:33:36.084Z,11.93
2022-11-23T20:36:11.096Z,11.62
2022-11-23T20:38:39.887Z,11.66
2022-11-23T20:41:15.476Z,12.02
2022-11-23T20:43:44.518Z,11.82
2022-11-23T20:46:16.711Z,12.00
2022-11-23T20:48:52.910Z,12.21
2022-11-23T20:51:21.413Z,12.59
2022-11-23T20:53:50.364Z,12.36
2022-11-23T20:56:24.270Z,12.90
2022-11-23T20:58:57.947Z,13.45
2022-11-23T21:01:26.421Z,12.94
2022-11-23T21:03:58.296Z,13.13
2022-11-23T21:06:26.979Z,13.20
2022-11-23T21:08:55.578Z,13.13
2022-11-23T21:11:42.568Z,13.71
2022-11-23T21:14:17.869Z,13.08
2022-11-23T21:16:52.920Z,14.10
2022-11-23T21:19:24.143Z,13.94
2022-11-23T21:21:52.916Z,13.57
2022-11-23T21:24:21.638Z,13.40
2022-11-23T21:26:50.382Z,12.84
2022-11-23T21:29:19.418Z,12.89
2022-11-23T21:31:49.586Z,13.81
2022-11-23T21:34:19.688Z,12.81
2022-11-23T21:36:49.789Z,13.44
2022-11-23T21:39:18.455Z,13.34
2022-11-23T21:41:47.414Z,14.11
2022-11-23T21:44:15.676Z,13.90
2022-11-23T21:46:44.235Z,14.26
2022-11-23T21:49:12.978Z,13.64
2022-11-23T21:51:42.676Z,13.76
2022-11-23T21:54:15.403Z,14.29
2022-11-23T21:56:44.418Z,14.35
2022-11-23T21:59:12.659Z,14.48
2022-11-23T22:01:41.751Z,14.45
2022-11-23T22:04:11.602Z,14.35
2022-11-23T22:06:40.542Z,14.32
2022-11-23T22:09:11.032Z,14.32
2022-11-23T22:11:42.292Z,14.46
2022-11-23T22:14:12.728Z,14.00
2022-11-23T22:16:43.363Z,14.16
2022-11-23T22:19:12.825Z,14.35
2022-11-23T22:21:42.201Z,14.97
2022-11-23T22:24:13.448Z,14.28
2022-11-23T22:26:43.081Z,14.34
2022-11-23T22:29:11.790Z,13.59
2022-11-23T22:31:40.265Z,14.34
2022-11-23T22:34:10.248Z,14.34
2022-11-23T22:36:38.611Z,14.08
2022-11-23T22:39:07.703Z,14.55
2022-11-23T22:41:37.307Z,14.48
2022-11-23T22:44:08.764Z,14.68
2022-11-23T22:46:37.688Z,14.42
2022-11-23T22:49:06.182Z,14.71
2022-11-23T22:51:34.541Z,13.93
2022-11-23T22:54:03.313Z,14.01
2022-11-23T22:56:32.263Z,14.00
2022-11-23T22:59:00.826Z,14.16
2022-11-23T23:01:31.694Z,14.85
2022-11-23T23:04:01.895Z,14.42
2022-11-23T23:06:33.701Z,15.01
2022-11-23T23:09:03.026Z,14.70
2022-11-23T23:11:32.471Z,13.81
2022-11-23T23:14:00.880Z,13.83
2022-11-23T23:16:30.832Z,14.17
2022-11-23T23:18:59.360Z,14.06
2022-11-23T23:21:29.250Z,13.63
2022-11-23T23:23:59.481Z,13.46
2022-11-23T23:26:28.557Z,13.63
2022-11-23T23:28:57.387Z,13.86
2022-11-23T23:31:26.380Z,13.78
2022-11-23T23:33:56.928Z,13.74
2022-11-23T23:36:25.401Z,13.83
2022-11-23T23:38:53.960Z,13.99
2022-11-23T23:41:22.391Z,13.42
2022-11-23T23:43:50.655Z,13.95
2022-11-23T23:46:19.191Z,13.83
2022-11-23T23:48:47.544Z,13.81
2022-11-23T23:51:18.555Z,13.94
2022-11-23T23:53:47.676Z,14.14
2022-11-23T23:56:17.773Z,14.27
2022-11-23T23:58:46.169Z,14.09
